createdAt,value
2017-12-17T00:00:36.787Z,1013.88
2017-12-17T00:01:36.717Z,1013.88
2017-12-17T00:02:36.761Z,1013.90
2017-12-17T00:03:36.700Z,1013.91
2017-12-17T00:04:36.737Z,1013.91
2017-12-17T00:05:36.738Z,1013.93
2017-12-17T00:06:36.706Z,1013.93
2017-12-17T00:07:36.668Z,1013.95
2017-12-17T00:08:36.642Z,1013.96
2017-12-17T00:09:36.668Z,1013.96
2017-12-17T00:10:36.691Z,1013.97
2017-12-17T00:11:36.661Z,1013.97
2017-12-17T00:12:36.641Z,1014.00
2017-12-17T00:13:36.585Z,1014.00
2017-12-17T00:14:36.827Z,1014.01
2017-12-17T00:15:36.602Z,1013.96
2017-12-17T00:16:36.599Z,1013.96
2017-12-17T00:17:36.778Z,1013.96
2017-12-17T00:18:36.590Z,1013.93
2017-12-17T00:19:36.517Z,1013.93
2017-12-17T00:20:36.506Z,1013.93
2017-12-17T00:21:36.493Z,1013.90
2017-12-17T00:22:36.482Z,1013.93
2017-12-17T00:23:36.471Z,1013.93
2017-12-17T00:24:36.460Z,1014.00
2017-12-17T00:25:36.446Z,1014.00
2017-12-17T00:26:36.432Z,1013.94
2017-12-17T00:27:36.423Z,1013.90
2017-12-17T00:28:36.409Z,1013.88
2017-12-17T00:29:36.398Z,1013.89
2017-12-17T00:30:36.384Z,1013.90
2017-12-17T00:31:36.374Z,1013.90
2017-12-17T00:32:36.363Z,1013.87
2017-12-17T00:33:36.351Z,1013.95
2017-12-17T00:34:36.343Z,1013.94
2017-12-17T00:35:36.332Z,1013.91
2017-12-17T00:36:36.319Z,1013.92
2017-12-17T00:37:36.308Z,1013.95
2017-12-17T00:38:36.297Z,1013.92
2017-12-17T00:39:36.285Z,1013.92
2017-12-17T00:40:36.274Z,1013.93
2017-12-17T00:41:36.261Z,1013.93
2017-12-17T00:42:36.247Z,1013.94
2017-12-17T00:43:36.235Z,1014.00
2017-12-17T00:44:36.222Z,1014.03
2017-12-17T00:45:36.211Z,1014.02
2017-12-17T00:46:36.199Z,1014.06
2017-12-17T00:47:36.189Z,1014.06
2017-12-17T00:48:36.176Z,1014.08
2017-12-17T00:49:36.164Z,1014.07
2017-12-17T00:50:36.156Z,1014.11
2017-12-17T00:51:36.145Z,1014.05
2017-12-17T00:52:36.134Z,1014.10
2017-12-17T00:53:36.121Z,1014.06
2017-12-17T00:54:36.109Z,1014.06
2017-12-17T00:55:36.097Z,1014.04
2017-12-17T00:56:36.087Z,1014.12
2017-12-17T00:57:36.073Z,1014.07
2017-12-17T00:58:36.057Z,1014.10
2017-12-17T00:59:36.047Z,1014.11
2017-12-17T01:00:36.034Z,1014.12
2017-12-17T01:01:36.023Z,1014.07
2017-12-17T01:02:36.011Z,1014.15
2017-12-17T01:03:35.998Z,1014.16
2017-12-17T01:04:35.988Z,1014.15
2017-12-17T01:05:35.975Z,1014.14
2017-12-17T01:06:35.968Z,1014.17
2017-12-17T01:07:35.956Z,1014.19
2017-12-17T01:08:35.943Z,1014.21
2017-12-17T01:09:35.931Z,1014.23
2017-12-17T01:10:35.920Z,1014.20
2017-12-17T01:11:35.908Z,1014.23
2017-12-17T01:12:35.898Z,1014.22
2017-12-17T01:13:35.884Z,1014.18
2017-12-17T01:14:35.870Z,1014.22
2017-12-17T01:15:35.857Z,1014.21
2017-12-17T01:16:35.846Z,1014.21
2017-12-17T01:17:35.853Z,1014.27
2017-12-17T01:18:35.821Z,1014.21
2017-12-17T01:19:35.811Z,1014.28
2017-12-17T01:20:35.800Z,1014.30
2017-12-17T01:21:35.787Z,1014.31
2017-12-17T01:22:35.779Z,1014.30
2017-12-17T01:23:35.789Z,1014.30
2017-12-17T01:24:35.764Z,1014.30
2017-12-17T01:25:35.744Z,1014.33
2017-12-17T01:26:35.732Z,1014.38
2017-12-17T01:27:35.721Z,1014.39
2017-12-17T01:28:35.709Z,1014.41
2017-12-17T01:29:35.696Z,1014.46
2017-12-17T01:30:35.680Z,1014.44
2017-12-17T01:31:35.668Z,1014.41
2017-12-17T01:32:35.657Z,1014.46
2017-12-17T01:33:35.646Z,1014.46
2017-12-17T01:34:35.634Z,1014.51
2017-12-17T01:35:35.627Z,1014.52
2017-12-17T01:36:35.610Z,1014.56
2017-12-17T01:37:35.598Z,1014.50
2017-12-17T01:38:35.592Z,1014.56
2017-12-17T01:39:35.579Z,1014.55
2017-12-17T01:40:35.567Z,1014.56
2017-12-17T01:41:35.557Z,1014.63
2017-12-17T01:42:35.540Z,1014.65
2017-12-17T01:43:35.528Z,1014.67
2017-12-17T01:44:35.518Z,1014.68
2017-12-17T01:45:35.504Z,1014.70
2017-12-17T01:46:35.497Z,1014.71
2017-12-17T01:47:35.485Z,1014.75
2017-12-17T01:48:35.475Z,1014.74
2017-12-17T01:49:35.461Z,1014.71
2017-12-17T01:50:35.456Z,1014.71
2017-12-17T01:51:35.439Z,1014.78
2017-12-17T01:52:35.428Z,1014.74
2017-12-17T01:53:35.414Z,1014.76
2017-12-17T01:54:35.400Z,1014.74
2017-12-17T01:55:35.387Z,1014.73
2017-12-17T01:56:35.377Z,1014.73
2017-12-17T01:57:35.364Z,1014.74
2017-12-17T01:58:35.352Z,1014.74
2017-12-17T01:59:35.341Z,1014.78
2017-12-17T02:00:35.329Z,1014.78
2017-12-17T02:01:35.316Z,1014.78
2017-12-17T02:02:35.310Z,1014.81
2017-12-17T02:03:35.299Z,1014.80
2017-12-17T02:04:35.288Z,1014.81
2017-12-17T02:05:35.275Z,1014.84
2017-12-17T02:06:35.264Z,1014.85
2017-12-17T02:07:35.258Z,1014.80
2017-12-17T02:08:35.240Z,1014.82
2017-12-17T02:09:35.229Z,1014.85
2017-12-17T02:10:35.213Z,1014.87
2017-12-17T02:11:35.199Z,1014.84
2017-12-17T02:12:35.189Z,1014.90
2017-12-17T02:13:35.176Z,1014.94
2017-12-17T02:14:35.165Z,1014.93
2017-12-17T02:15:35.154Z,1014.95
2017-12-17T02:16:35.140Z,1014.96
2017-12-17T02:17:35.130Z,1014.91
2017-12-17T02:18:35.122Z,1014.93
2017-12-17T02:19:35.111Z,1014.94
2017-12-17T02:20:35.099Z,1014.95
2017-12-17T02:21:35.087Z,1014.94
2017-12-17T02:22:35.075Z,1014.95
2017-12-17T02:23:35.063Z,1014.93
2017-12-17T02:24:35.052Z,1014.96
2017-12-17T02:25:35.039Z,1014.98
2017-12-17T02:26:35.024Z,1015.00
2017-12-17T02:27:35.012Z,1015.00
2017-12-17T02:28:35.001Z,1015.00
2017-12-17T02:29:34.988Z,1015.05
2017-12-17T02:30:34.979Z,1015.06
2017-12-17T02:31:34.966Z,1014.98
2017-12-17T02:32:34.954Z,1015.03
2017-12-17T02:33:34.941Z,1015.02
2017-12-17T02:34:34.934Z,1015.07
2017-12-17T02:35:34.922Z,1015.04
2017-12-17T02:36:34.911Z,1015.06
2017-12-17T02:37:34.900Z,1015.09
2017-12-17T02:38:34.887Z,1015.03
2017-12-17T02:39:34.876Z,1015.06
2017-12-17T02:40:34.865Z,1015.07
2017-12-17T02:41:34.856Z,1015.08
2017-12-17T02:42:34.837Z,1015.08
2017-12-17T02:43:34.825Z,1015.14
2017-12-17T02:44:34.815Z,1015.09
2017-12-17T02:45:34.801Z,1015.11
2017-12-17T02:46:34.794Z,1015.08
2017-12-17T02:47:34.782Z,1015.15
2017-12-17T02:48:34.771Z,1015.11
2017-12-17T02:49:34.759Z,1015.10
2017-12-17T02:50:34.743Z,1015.09
2017-12-17T02:51:34.732Z,1015.09
2017-12-17T02:52:34.720Z,1015.09
2017-12-17T02:53:34.708Z,1015.13
2017-12-17T02:54:34.696Z,1015.15
2017-12-17T02:55:34.683Z,1015.16
2017-12-17T02:56:34.672Z,1015.19
2017-12-17T02:57:34.663Z,1015.21
2017-12-17T02:58:34.653Z,1015.22
2017-12-17T02:59:34.642Z,1015.22
2017-12-17T03:00:34.630Z,1015.21
2017-12-17T03:01:34.618Z,1015.17
2017-12-17T03:02:34.613Z,1015.20
2017-12-17T03:03:34.595Z,1015.24
2017-12-17T03:04:34.583Z,1015.25
2017-12-17T03:05:34.573Z,1015.24
2017-12-17T03:06:34.555Z,1015.26
2017-12-17T03:07:34.544Z,1015.27
2017-12-17T03:08:34.533Z,1015.25
2017-12-17T03:09:34.521Z,1015.29
2017-12-17T03:10:34.509Z,1015.25
2017-12-17T03:11:34.498Z,1015.25
2017-12-17T03:12:34.486Z,1015.27
2017-12-17T03:13:34.473Z,1015.30
2017-12-17T03:14:34.467Z,1015.25
2017-12-17T03:15:34.454Z,1015.26
2017-12-17T03:16:34.444Z,1015.28
2017-12-17T03:17:34.433Z,1015.30
2017-12-17T03:18:34.418Z,1015.29
2017-12-17T03:19:34.408Z,1015.30
2017-12-17T03:20:34.396Z,1015.28
2017-12-17T03:21:34.421Z,1015.33
2017-12-17T03:22:34.369Z,1015.31
2017-12-17T03:23:34.357Z,1015.33
2017-12-17T03:24:34.350Z,1015.32
2017-12-17T03:25:34.334Z,1015.33
2017-12-17T03:26:34.322Z,1015.34
2017-12-17T03:27:34.311Z,1015.33
2017-12-17T03:28:34.298Z,1015.34
2017-12-17T03:29:34.288Z,1015.36
2017-12-17T03:30:34.284Z,1015.32
2017-12-17T03:31:34.267Z,1015.31
2017-12-17T03:32:34.257Z,1015.34
2017-12-17T03:33:34.245Z,1015.36
2017-12-17T03:34:34.232Z,1015.33
2017-12-17T03:35:34.221Z,1015.38
2017-12-17T03:36:34.209Z,1015.40
2017-12-17T03:37:34.197Z,1015.41
2017-12-17T03:38:34.179Z,1015.41
2017-12-17T03:39:34.169Z,1015.38
2017-12-17T03:40:34.157Z,1015.41
2017-12-17T03:41:34.185Z,1015.38
2017-12-17T03:42:34.133Z,1015.39
2017-12-17T03:43:34.122Z,1015.46
2017-12-17T03:44:34.110Z,1015.44
2017-12-17T03:45:34.097Z,1015.45
2017-12-17T03:46:34.091Z,1015.46
2017-12-17T03:47:34.079Z,1015.49
2017-12-17T03:48:34.068Z,1015.56
2017-12-17T03:49:34.056Z,1015.58
2017-12-17T03:50:34.040Z,1015.64
2017-12-17T03:51:34.027Z,1015.67
2017-12-17T03:52:34.016Z,1015.63
2017-12-17T03:53:34.004Z,1015.73
2017-12-17T03:54:33.997Z,1015.67
2017-12-17T03:55:33.985Z,1015.72
2017-12-17T03:56:33.973Z,1015.73
2017-12-17T03:57:33.960Z,1015.78
2017-12-17T03:58:33.949Z,1015.69
2017-12-17T03:59:33.936Z,1015.74
2017-12-17T04:00:33.926Z,1015.67
2017-12-17T04:01:33.913Z,1015.67
2017-12-17T04:02:33.897Z,1015.72
2017-12-17T04:03:33.887Z,1015.70
2017-12-17T04:04:33.874Z,1015.67
2017-12-17T04:05:33.862Z,1015.61
2017-12-17T04:06:33.850Z,1015.58
2017-12-17T04:07:33.838Z,1015.66
2017-12-17T04:08:33.826Z,1015.67
2017-12-17T04:09:33.814Z,1015.69
2017-12-17T04:10:33.806Z,1015.67
2017-12-17T04:11:33.795Z,1015.69
2017-12-17T04:12:33.783Z,1015.72
2017-12-17T04:13:33.769Z,1015.68
2017-12-17T04:14:33.759Z,1015.76
2017-12-17T04:15:33.747Z,1015.75
2017-12-17T04:16:33.735Z,1015.75
2017-12-17T04:17:33.722Z,1015.81
2017-12-17T04:18:33.706Z,1015.82
2017-12-17T04:19:33.694Z,1015.86
2017-12-17T04:20:33.681Z,1015.79
2017-12-17T04:21:33.669Z,1015.82
2017-12-17T04:22:33.657Z,1015.83
2017-12-17T04:23:33.644Z,1015.84
2017-12-17T04:24:33.632Z,1015.82
2017-12-17T04:25:33.620Z,1015.81
2017-12-17T04:26:33.616Z,1015.85
2017-12-17T04:27:33.601Z,1015.93
2017-12-17T04:28:33.589Z,1015.85
2017-12-17T04:29:33.575Z,1015.81
2017-12-17T04:30:33.564Z,1015.86
2017-12-17T04:31:33.551Z,1015.88
2017-12-17T04:32:33.539Z,1015.83
2017-12-17T04:33:33.527Z,1015.90
2017-12-17T04:34:33.511Z,1015.94
2017-12-17T04:35:33.501Z,1015.89
2017-12-17T04:36:33.486Z,1015.95
2017-12-17T04:37:33.473Z,1015.96
2017-12-17T04:38:33.461Z,1015.96
2017-12-17T04:39:33.449Z,1015.96
2017-12-17T04:40:33.437Z,1015.94
2017-12-17T04:41:33.424Z,1015.93
2017-12-17T04:42:33.418Z,1015.95
2017-12-17T04:43:33.406Z,1015.97
2017-12-17T04:44:33.394Z,1015.98
2017-12-17T04:45:33.381Z,1015.97
2017-12-17T04:46:33.368Z,1016.00
2017-12-17T04:47:33.356Z,1016.03
2017-12-17T04:48:33.345Z,1016.00
2017-12-17T04:49:33.333Z,1016.09
2017-12-17T04:50:33.316Z,1016.03
2017-12-17T04:51:33.307Z,1016.07
2017-12-17T04:52:33.292Z,1016.05
2017-12-17T04:53:33.280Z,1016.09
2017-12-17T04:54:33.272Z,1016.08
2017-12-17T04:55:33.260Z,1016.09
2017-12-17T04:56:33.248Z,1016.11
2017-12-17T04:57:33.235Z,1016.16
2017-12-17T04:58:33.218Z,1016.16
2017-12-17T04:59:33.207Z,1016.16
2017-12-17T05:00:33.195Z,1016.18
2017-12-17T05:01:33.190Z,1016.17
2017-12-17T05:02:33.170Z,1016.20
2017-12-17T05:03:33.159Z,1016.19
2017-12-17T05:04:33.147Z,1016.27
2017-12-17T05:05:33.134Z,1016.24
2017-12-17T05:06:33.126Z,1016.24
2017-12-17T05:07:33.114Z,1016.20
2017-12-17T05:08:33.103Z,1016.27
2017-12-17T05:09:33.090Z,1016.34
2017-12-17T05:10:33.078Z,1016.35
2017-12-17T05:11:33.065Z,1016.38
2017-12-17T05:12:33.054Z,1016.41
2017-12-17T05:13:33.042Z,1016.46
2017-12-17T05:14:33.026Z,1016.43
2017-12-17T05:15:33.014Z,1016.43
2017-12-17T05:16:33.002Z,1016.39
2017-12-17T05:17:32.988Z,1016.46
2017-12-17T05:18:32.977Z,1016.47
2017-12-17T05:19:32.966Z,1016.44
2017-12-17T05:20:32.954Z,1016.45
2017-12-17T05:21:32.941Z,1016.45
2017-12-17T05:22:32.933Z,1016.46
2017-12-17T05:23:32.921Z,1016.46
2017-12-17T05:24:32.910Z,1016.50
2017-12-17T05:25:32.897Z,1016.51
2017-12-17T05:26:32.884Z,1016.45
2017-12-17T05:27:32.873Z,1016.45
2017-12-17T05:28:32.862Z,1016.48
2017-12-17T05:29:32.849Z,1016.45
2017-12-17T05:30:32.840Z,1016.43
2017-12-17T05:31:32.821Z,1016.50
2017-12-17T05:32:32.809Z,1016.52
2017-12-17T05:33:32.798Z,1016.52
2017-12-17T05:34:32.783Z,1016.56
2017-12-17T05:35:32.773Z,1016.55
2017-12-17T05:36:32.760Z,1016.53
2017-12-17T05:37:32.748Z,1016.58
2017-12-17T05:38:32.739Z,1016.56
2017-12-17T05:39:32.731Z,1016.58
2017-12-17T05:40:32.717Z,1016.57
2017-12-17T05:41:32.706Z,1016.63
2017-12-17T05:42:32.693Z,1016.60
2017-12-17T05:43:32.681Z,1016.62
2017-12-17T05:44:32.669Z,1016.66
2017-12-17T05:45:32.655Z,1016.68
2017-12-17T05:46:32.639Z,1016.66
2017-12-17T05:47:32.629Z,1016.62
2017-12-17T05:48:32.615Z,1016.65
2017-12-17T05:49:32.602Z,1016.58
2017-12-17T05:50:32.592Z,1016.62
2017-12-17T05:51:32.580Z,1016.65
2017-12-17T05:52:32.568Z,1016.65
2017-12-17T05:53:32.556Z,1016.62
2017-12-17T05:54:32.551Z,1016.67
2017-12-17T05:55:32.536Z,1016.72
2017-12-17T05:56:32.525Z,1016.68
2017-12-17T05:57:32.511Z,1016.68
2017-12-17T05:58:32.496Z,1016.73
2017-12-17T05:59:32.490Z,1016.71
2017-12-17T06:00:32.473Z,1016.72
2017-12-17T06:01:32.459Z,1016.72
2017-12-17T06:02:32.452Z,1016.81
2017-12-17T06:03:32.440Z,1016.80
2017-12-17T06:04:32.429Z,1016.88
2017-12-17T06:05:32.415Z,1016.84
2017-12-17T06:06:32.404Z,1016.87
2017-12-17T06:07:32.413Z,1016.88
2017-12-17T06:08:32.379Z,1016.89
2017-12-17T06:09:32.368Z,1016.87
2017-12-17T06:10:32.351Z,1016.91
2017-12-17T06:11:32.339Z,1016.92
2017-12-17T06:12:32.327Z,1016.87
2017-12-17T06:13:32.314Z,1016.93
2017-12-17T06:14:32.303Z,1016.86
2017-12-17T06:15:32.291Z,1016.83
2017-12-17T06:16:32.278Z,1016.89
2017-12-17T06:17:32.266Z,1016.92
2017-12-17T06:18:32.259Z,1016.87
2017-12-17T06:19:32.247Z,1016.89
2017-12-17T06:20:32.234Z,1016.87
2017-12-17T06:21:32.221Z,1016.82
2017-12-17T06:22:32.210Z,1016.86
2017-12-17T06:23:32.200Z,1016.85
2017-12-17T06:24:32.194Z,1016.83
2017-12-17T06:25:32.179Z,1016.88
2017-12-17T06:26:32.159Z,1016.87
2017-12-17T06:27:32.147Z,1016.85
2017-12-17T06:28:32.135Z,1016.79
2017-12-17T06:29:32.123Z,1016.87
2017-12-17T06:30:32.110Z,1016.90
2017-12-17T06:31:32.098Z,1016.90
2017-12-17T06:32:32.086Z,1016.93
2017-12-17T06:33:32.077Z,1016.91
2017-12-17T06:34:32.066Z,1016.93
2017-12-17T06:35:32.055Z,1016.92
2017-12-17T06:36:32.050Z,1016.95
2017-12-17T06:37:32.030Z,1016.92
2017-12-17T06:38:32.017Z,1016.92
2017-12-17T06:39:32.006Z,1016.94
2017-12-17T06:40:31.996Z,1016.88
2017-12-17T06:41:31.982Z,1016.90
2017-12-17T06:42:31.964Z,1016.92
2017-12-17T06:43:31.954Z,1016.93
2017-12-17T06:44:31.941Z,1017.00
2017-12-17T06:45:31.928Z,1016.95
2017-12-17T06:46:31.916Z,1017.05
2017-12-17T06:47:31.905Z,1017.08
2017-12-17T06:48:31.893Z,1017.09
2017-12-17T06:49:31.881Z,1017.08
2017-12-17T06:50:31.873Z,1017.12
2017-12-17T06:51:31.863Z,1017.14
2017-12-17T06:52:31.850Z,1017.17
2017-12-17T06:53:31.837Z,1017.20
2017-12-17T06:54:31.825Z,1017.13
2017-12-17T06:55:31.811Z,1017.23
2017-12-17T06:56:31.801Z,1017.25
2017-12-17T06:57:31.787Z,1017.24
2017-12-17T06:58:31.772Z,1017.22
2017-12-17T06:59:31.758Z,1017.28
2017-12-17T07:00:31.749Z,1017.27
2017-12-17T07:01:31.734Z,1017.28
2017-12-17T07:02:31.727Z,1017.24
2017-12-17T07:03:31.715Z,1017.29
2017-12-17T07:04:31.702Z,1017.25
2017-12-17T07:05:31.690Z,1017.25
2017-12-17T07:06:31.674Z,1017.30
2017-12-17T07:07:31.662Z,1017.33
2017-12-17T07:08:31.649Z,1017.29
2017-12-17T07:09:31.637Z,1017.36
2017-12-17T07:10:31.630Z,1017.38
2017-12-17T07:11:31.615Z,1017.38
2017-12-17T07:12:31.602Z,1017.38
2017-12-17T07:13:31.587Z,1017.38
2017-12-17T07:14:31.580Z,1017.39
2017-12-17T07:15:31.569Z,1017.42
2017-12-17T07:16:31.557Z,1017.39
2017-12-17T07:17:31.544Z,1017.43
2017-12-17T07:18:31.532Z,1017.47
2017-12-17T07:19:31.520Z,1017.42
2017-12-17T07:20:31.512Z,1017.44
2017-12-17T07:21:31.496Z,1017.46
2017-12-17T07:22:31.478Z,1017.46
2017-12-17T07:23:31.466Z,1017.54
2017-12-17T07:24:31.454Z,1017.52
2017-12-17T07:25:31.443Z,1017.58
2017-12-17T07:26:31.429Z,1017.58
2017-12-17T07:27:31.418Z,1017.57
2017-12-17T07:28:31.407Z,1017.61
2017-12-17T07:29:31.392Z,1017.61
2017-12-17T07:30:31.385Z,1017.66
2017-12-17T07:31:31.374Z,1017.63
2017-12-17T07:32:31.361Z,1017.67
2017-12-17T07:33:31.349Z,1017.71
2017-12-17T07:34:31.336Z,1017.69
2017-12-17T07:35:31.324Z,1017.72
2017-12-17T07:36:31.313Z,1017.74
2017-12-17T07:37:31.300Z,1017.72
2017-12-17T07:38:31.283Z,1017.80
2017-12-17T07:39:31.273Z,1017.79
2017-12-17T07:40:31.260Z,1017.85
2017-12-17T07:41:31.248Z,1017.84
2017-12-17T07:42:31.242Z,1017.82
2017-12-17T07:43:31.223Z,1017.90
2017-12-17T07:44:31.212Z,1017.92
2017-12-17T07:45:31.199Z,1017.97
2017-12-17T07:46:31.190Z,1018.02
2017-12-17T07:47:31.179Z,1017.97
2017-12-17T07:48:31.168Z,1017.99
2017-12-17T07:49:31.154Z,1018.02
2017-12-17T07:50:31.142Z,1018.03
2017-12-17T07:51:31.131Z,1018.10
2017-12-17T07:52:31.119Z,1018.06
2017-12-17T07:53:31.105Z,1018.12
2017-12-17T07:54:31.089Z,1018.13
2017-12-17T07:55:31.076Z,1018.12
2017-12-17T07:56:31.066Z,1018.19
2017-12-17T07:57:31.053Z,1018.22
2017-12-17T07:58:31.041Z,1018.21
2017-12-17T07:59:31.031Z,1018.26
2017-12-17T08:00:31.016Z,1018.23
2017-12-17T08:01:31.004Z,1018.26
2017-12-17T08:02:30.996Z,1018.26
2017-12-17T08:03:30.984Z,1018.26
2017-12-17T08:04:30.975Z,1018.28
2017-12-17T08:05:30.960Z,1018.25
2017-12-17T08:06:30.945Z,1018.25
2017-12-17T08:07:30.933Z,1018.24
2017-12-17T08:08:30.921Z,1018.28
2017-12-17T08:09:30.906Z,1018.24
2017-12-17T08:10:30.900Z,1018.29
2017-12-17T08:11:30.887Z,1018.25
2017-12-17T08:12:30.876Z,1018.23
2017-12-17T08:13:30.863Z,1018.26
2017-12-17T08:14:30.850Z,1018.24
2017-12-17T08:15:30.839Z,1018.30
2017-12-17T08:16:30.828Z,1018.27
2017-12-17T08:17:30.814Z,1018.33
2017-12-17T08:18:30.800Z,1018.33
2017-12-17T08:19:30.788Z,1018.35
2017-12-17T08:20:30.774Z,1018.37
2017-12-17T08:21:30.762Z,1018.39
2017-12-17T08:22:30.750Z,1018.40
2017-12-17T08:23:30.738Z,1018.42
2017-12-17T08:24:30.733Z,1018.48
2017-12-17T08:25:30.714Z,1018.44
2017-12-17T08:26:30.706Z,1018.51
2017-12-17T08:27:30.695Z,1018.53
2017-12-17T08:28:30.683Z,1018.58
2017-12-17T08:29:30.671Z,1018.65
2017-12-17T08:30:30.659Z,1018.65
2017-12-17T08:31:30.648Z,1018.67
2017-12-17T08:32:30.635Z,1018.63
2017-12-17T08:33:30.622Z,1018.65
2017-12-17T08:34:30.605Z,1018.68
2017-12-17T08:35:30.594Z,1018.66
2017-12-17T08:36:30.584Z,1018.72
2017-12-17T08:37:30.571Z,1018.72
2017-12-17T08:38:30.559Z,1018.74
2017-12-17T08:39:30.546Z,1018.74
2017-12-17T08:40:30.536Z,1018.76
2017-12-17T08:41:30.524Z,1018.78
2017-12-17T08:42:30.516Z,1018.77
2017-12-17T08:43:30.505Z,1018.76
2017-12-17T08:44:30.497Z,1018.82
2017-12-17T08:45:30.483Z,1018.82
2017-12-17T08:46:30.469Z,1018.84
2017-12-17T08:47:30.457Z,1018.81
2017-12-17T08:48:30.446Z,1018.89
2017-12-17T08:49:30.434Z,1018.87
2017-12-17T08:50:30.418Z,1018.90
2017-12-17T08:51:30.410Z,1018.89
2017-12-17T08:52:30.395Z,1018.93
2017-12-17T08:53:30.383Z,1018.87
2017-12-17T08:54:30.370Z,1018.89
2017-12-17T08:55:30.360Z,1018.94
2017-12-17T08:56:30.349Z,1018.94
2017-12-17T08:57:30.335Z,1018.95
2017-12-17T08:58:30.329Z,1018.92
2017-12-17T08:59:30.319Z,1018.99
2017-12-17T09:00:30.306Z,1018.99
2017-12-17T09:01:30.294Z,1018.98
2017-12-17T09:02:30.283Z,1018.94
2017-12-17T09:03:30.271Z,1018.99
2017-12-17T09:04:30.259Z,1018.99
2017-12-17T09:05:30.248Z,1018.96
2017-12-17T09:06:30.234Z,1018.98
2017-12-17T09:07:30.222Z,1018.99
2017-12-17T09:08:30.209Z,1018.99
2017-12-17T09:09:30.199Z,1018.96
2017-12-17T09:10:30.187Z,1019.00
2017-12-17T09:11:30.176Z,1019.03
2017-12-17T09:12:30.164Z,1019.02
2017-12-17T09:13:30.153Z,1019.02
2017-12-17T09:14:30.146Z,1019.04
2017-12-17T09:15:30.135Z,1019.04
2017-12-17T09:16:30.123Z,1019.10
2017-12-17T09:17:30.112Z,1019.06
2017-12-17T09:18:30.103Z,1019.11
2017-12-17T09:19:30.090Z,1019.15
2017-12-17T09:20:30.079Z,1019.15
2017-12-17T09:21:30.067Z,1019.22
2017-12-17T09:22:30.051Z,1019.19
2017-12-17T09:23:30.040Z,1019.21
2017-12-17T09:24:30.031Z,1019.18
2017-12-17T09:25:30.017Z,1019.20
2017-12-17T09:26:30.007Z,1019.23
2017-12-17T09:27:29.998Z,1019.24
2017-12-17T09:28:29.984Z,1019.26
2017-12-17T09:29:29.972Z,1019.26
2017-12-17T09:30:29.965Z,1019.31
2017-12-17T09:31:29.954Z,1019.36
2017-12-17T09:32:29.942Z,1019.33
2017-12-17T09:33:29.932Z,1019.34
2017-12-17T09:34:29.920Z,1019.36
2017-12-17T09:35:29.910Z,1019.34
2017-12-17T09:36:29.898Z,1019.32
2017-12-17T09:37:29.888Z,1019.32
2017-12-17T09:38:29.870Z,1019.35
2017-12-17T09:39:29.860Z,1019.33
2017-12-17T09:40:29.849Z,1019.40
2017-12-17T09:41:29.836Z,1019.37
2017-12-17T09:42:29.824Z,1019.40
2017-12-17T09:43:29.815Z,1019.47
2017-12-17T09:44:29.808Z,1019.43
2017-12-17T09:45:29.792Z,1019.44
2017-12-17T09:46:29.784Z,1019.40
2017-12-17T09:47:29.774Z,1019.43
2017-12-17T09:48:29.762Z,1019.45
2017-12-17T09:49:29.752Z,1019.46
2017-12-17T09:50:29.740Z,1019.46
2017-12-17T09:51:29.729Z,1019.42
2017-12-17T09:52:29.718Z,1019.50
2017-12-17T09:53:29.706Z,1019.47
2017-12-17T09:54:29.691Z,1019.49
2017-12-17T09:55:29.679Z,1019.51
2017-12-17T09:56:29.674Z,1019.49
2017-12-17T09:57:29.658Z,1019.47
2017-12-17T09:58:29.649Z,1019.52
2017-12-17T09:59:29.638Z,1019.53
2017-12-17T10:00:29.626Z,1019.54
2017-12-17T10:01:29.616Z,1019.46
2017-12-17T10:02:29.609Z,1019.51
2017-12-17T10:03:29.598Z,1019.50
2017-12-17T10:04:29.587Z,1019.50
2017-12-17T10:05:29.576Z,1019.57
2017-12-17T10:06:29.564Z,1019.53
2017-12-17T10:07:29.555Z,1019.56
2017-12-17T10:08:29.544Z,1019.61
2017-12-17T10:09:29.532Z,1019.56
2017-12-17T10:10:29.517Z,1019.58
2017-12-17T10:11:29.506Z,1019.59
2017-12-17T10:12:29.496Z,1019.58
2017-12-17T10:13:29.483Z,1019.55
2017-12-17T10:14:29.477Z,1019.57
2017-12-17T10:15:29.467Z,1019.55
2017-12-17T10:16:29.456Z,1019.53
2017-12-17T10:17:29.444Z,1019.55
2017-12-17T10:18:29.429Z,1019.56
2017-12-17T10:19:29.426Z,1019.54
2017-12-17T10:20:29.407Z,1019.57
2017-12-17T10:21:29.396Z,1019.52
2017-12-17T10:22:29.385Z,1019.53
2017-12-17T10:23:29.375Z,1019.52
2017-12-17T10:24:29.364Z,1019.50
2017-12-17T10:25:29.354Z,1019.51
2017-12-17T10:26:29.347Z,1019.51
2017-12-17T10:27:29.335Z,1019.54
2017-12-17T10:28:29.324Z,1019.48
2017-12-17T10:29:29.313Z,1019.47
2017-12-17T10:30:29.302Z,1019.44
2017-12-17T10:31:29.291Z,1019.45
2017-12-17T10:32:29.281Z,1019.44
2017-12-17T10:33:29.270Z,1019.47
2017-12-17T10:34:29.253Z,1019.48
2017-12-17T10:35:29.244Z,1019.51
2017-12-17T10:36:29.233Z,1019.52
2017-12-17T10:37:29.221Z,1019.52
2017-12-17T10:38:29.212Z,1019.49
2017-12-17T10:39:29.199Z,1019.48
2017-12-17T10:40:29.192Z,1019.46
2017-12-17T10:41:29.178Z,1019.44
2017-12-17T10:42:29.171Z,1019.44
2017-12-17T10:43:29.162Z,1019.46
2017-12-17T10:44:29.154Z,1019.50
2017-12-17T10:45:29.140Z,1019.47
2017-12-17T10:46:29.129Z,1019.49
2017-12-17T10:47:29.181Z,1019.50
2017-12-17T10:48:29.107Z,1019.55
2017-12-17T10:49:29.097Z,1019.57
2017-12-17T10:50:29.082Z,1019.58
2017-12-17T10:51:29.071Z,1019.57
2017-12-17T10:52:29.060Z,1019.53
2017-12-17T10:53:29.051Z,1019.51
2017-12-17T10:54:29.039Z,1019.56
2017-12-17T10:55:29.028Z,1019.58
2017-12-17T10:56:29.018Z,1019.58
2017-12-17T10:57:29.006Z,1019.55
2017-12-17T10:58:28.999Z,1019.59
2017-12-17T10:59:28.990Z,1019.61
2017-12-17T11:00:28.979Z,1019.61
2017-12-17T11:01:28.969Z,1019.58
2017-12-17T11:02:28.958Z,1019.65
2017-12-17T11:03:28.949Z,1019.59
2017-12-17T11:04:28.937Z,1019.60
2017-12-17T11:05:28.927Z,1019.62
2017-12-17T11:06:28.910Z,1019.63
2017-12-17T11:07:28.900Z,1019.68
2017-12-17T11:08:28.889Z,1019.66
2017-12-17T11:09:28.878Z,1019.62
2017-12-17T11:10:28.868Z,1019.59
2017-12-17T11:11:28.857Z,1019.64
2017-12-17T11:12:28.847Z,1019.61
2017-12-17T11:13:28.834Z,1019.64
2017-12-17T11:14:28.831Z,1019.59
2017-12-17T11:15:28.818Z,1019.58
2017-12-17T11:16:28.809Z,1019.52
2017-12-17T11:17:28.797Z,1019.55
2017-12-17T11:18:28.783Z,1019.55
2017-12-17T11:19:28.770Z,1019.51
2017-12-17T11:20:28.760Z,1019.52
2017-12-17T11:21:28.749Z,1019.55
2017-12-17T11:22:28.742Z,1019.55
2017-12-17T11:23:28.733Z,1019.53
2017-12-17T11:24:28.729Z,1019.48
2017-12-17T11:25:28.714Z,1019.51
2017-12-17T11:26:28.700Z,1019.44
2017-12-17T11:27:28.690Z,1019.45
2017-12-17T11:28:28.679Z,1019.42
2017-12-17T11:29:28.670Z,1019.43
2017-12-17T11:30:28.654Z,1019.45
2017-12-17T11:31:28.642Z,1019.43
2017-12-17T11:32:28.635Z,1019.40
2017-12-17T11:33:28.625Z,1019.42
2017-12-17T11:34:28.611Z,1019.42
2017-12-17T11:35:28.601Z,1019.44
2017-12-17T11:36:28.589Z,1019.44
2017-12-17T11:37:28.578Z,1019.45
2017-12-17T11:38:28.573Z,1019.48
2017-12-17T11:39:28.565Z,1019.47
2017-12-17T11:40:28.551Z,1019.46
2017-12-17T11:41:28.539Z,1019.48
2017-12-17T11:42:28.536Z,1019.46
2017-12-17T11:43:28.520Z,1019.49
2017-12-17T11:44:28.511Z,1019.46
2017-12-17T11:45:28.498Z,1019.47
2017-12-17T11:46:28.482Z,1019.47
2017-12-17T11:47:28.470Z,1019.49
2017-12-17T11:48:28.461Z,1019.48
2017-12-17T11:49:28.452Z,1019.47
2017-12-17T11:50:28.438Z,1019.46
2017-12-17T11:51:28.427Z,1019.40
2017-12-17T11:52:28.417Z,1019.47
2017-12-17T11:53:28.405Z,1019.47
2017-12-17T11:54:28.399Z,1019.51
2017-12-17T11:55:28.389Z,1019.51
2017-12-17T11:56:28.381Z,1019.52
2017-12-17T11:57:28.366Z,1019.50
2017-12-17T11:58:28.362Z,1019.53
2017-12-17T11:59:28.345Z,1019.50
2017-12-17T12:00:28.333Z,1019.51
2017-12-17T12:01:28.322Z,1019.51
2017-12-17T12:02:28.308Z,1019.49
2017-12-17T12:03:28.297Z,1019.49
2017-12-17T12:04:28.292Z,1019.47
2017-12-17T12:05:28.274Z,1019.40